Time;durP1;ratioP1;P1;durP2;ratioP2;P2;SDS_P1;SDS_P2;PMS_P1;PMS_P2;Temp;Humidity;BMP_temperature;BMP_pressure;BME280_temperature;BME280_humidity;BME280_pressure;Samples;Min_cycle;Max_cycle;Signal;HPM_P1;HPM_P2
2023/09/20 00:02:27;;;;;;;7.15;2.40;;;;;;;9.08;68.31;97245.66;6223956;28;20081;-69
2023/09/20 00:05:28;;;;;;;7.55;2.20;;;;;;;9.11;68.43;97254.19;6224110;28;20045;-69
2023/09/20 00:08:35;;;;;;;6.30;2.20;;;;;;;9.07;68.15;97260.56;6223307;28;20503;-69
2023/09/20 00:11:39;;;;;;;6.82;2.10;;;;;;;9.08;68.52;97275.38;6223715;28;20038;-69
2023/09/20 00:14:40;;;;;;;3.80;2.45;;;;;;;8.98;68.56;97269.75;6223067;28;20050;-69
2023/09/20 00:17:45;;;;;;;5.38;2.25;;;;;;;8.98;68.62;97277.63;6205000;28;20054;-69
2023/09/20 00:20:52;;;;;;;6.45;2.65;;;;;;;8.99;68.41;97281.94;6223817;28;20042;-69
2023/09/20 00:23:55;;;;;;;4.30;1.92;;;;;;;8.99;68.51;97276.69;6206122;28;20072;-69
2023/09/20 00:26:57;;;;;;;;;;;;;;;9.10;67.85;97289.28;6223418;28;20133;-68
2023/09/20 00:30:03;;;;;;;10.03;2.90;;;;;;;9.27;67.96;97296.25;6206387;28;19917;-68
2023/09/20 00:33:06;;;;;;;9.65;3.50;;;;;;;9.29;67.85;97293.56;6222752;28;20057;-68
2023/09/20 00:36:19;;;;;;;7.88;2.95;;;;;;;9.32;67.81;97304.75;6223146;28;20050;-68
2023/09/20 00:39:23;;;;;;;8.15;3.05;;;;;;;9.28;67.84;97295.31;6206099;28;20050;-68
2023/09/20 00:42:28;;;;;;;7.20;2.60;;;;;;;9.25;67.82;97297.28;6222471;28;20056;-68
2023/09/20 00:45:40;;;;;;;7.20;2.28;;;;;;;9.31;67.75;97305.66;6223336;28;20057;-68
2023/09/20 00:48:45;;;;;;;9.90;3.25;;;;;;;9.14;67.77;97316.22;6223281;28;20046;-70
2023/09/20 00:51:48;;;;;;;9.68;3.25;;;;;;;8.99;67.90;97313.44;6222483;28;20536;-69
2023/09/20 00:54:52;;;;;;;11.95;3.45;;;;;;;8.96;68.01;97323.25;6223320;28;20125;-69
2023/09/20 00:57:56;;;;;;;9.88;3.22;;;;;;;8.85;68.30;97336.94;6224560;28;20079;-69
2023/09/20 01:01:00;;;;;;;11.68;3.88;;;;;;;8.77;67.97;97329.47;6225364;28;20041;-68
2023/09/20 01:04:02;;;;;;;10.50;3.35;;;;;;;8.77;67.77;97333.84;6226305;28;20464;-68
2023/09/20 01:07:06;;;;;;;6.95;2.97;;;;;;;8.72;68.11;97330.63;6226329;28;20045;-68
2023/09/20 01:10:13;;;;;;;5.93;2.85;;;;;;;8.66;67.96;97336.16;6222830;28;20516;-69
2023/09/20 01:13:18;;;;;;;6.85;2.60;;;;;;;8.58;68.02;97336.53;6223266;28;20045;-69
2023/09/20 01:16:22;;;;;;;11.88;2.80;;;;;;;8.54;67.86;97343.69;6206708;28;20141;-68
2023/09/20 01:19:23;;;;;;;5.60;2.55;;;;;;;8.57;67.72;97347.09;6223205;28;20056;-68
2023/09/20 01:22:30;;;;;;;8.45;2.28;;;;;;;8.44;67.83;97336.38;6223229;28;20045;-69
2023/09/20 01:25:43;;;;;;;7.10;2.40;;;;;;;8.47;67.61;97347.56;6222771;28;20045;-69
2023/09/20 01:28:44;;;;;;;9.98;4.40;;;;;;;8.39;67.64;97354.94;6221952;28;20054;-69
2023/09/20 01:31:48;;;;;;;4.43;2.60;;;;;;;8.34;67.75;97367.38;6222240;28;20077;-69
2023/09/20 01:34:53;;;;;;;7.97;2.97;;;;;;;8.22;68.11;97362.75;6221838;28;20061;-68
2023/09/20 01:37:55;;;;;;;2.50;2.03;;;;;;;8.07;68.22;97370.41;6221931;28;20046;-68
2023/09/20 01:41:03;;;;;;;3.78;1.80;;;;;;;7.96;68.33;97372.69;6204646;28;20037;-70
2023/09/20 01:44:07;;;;;;;4.72;1.58;;;;;;;7.89;68.59;97366.00;6221822;28;20502;-70
2023/09/20 01:47:12;;;;;;;5.43;1.60;;;;;;;7.83;68.81;97372.38;6220848;28;20049;-69
2023/09/20 01:50:20;;;;;;;1.88;1.60;;;;;;;7.73;68.57;97370.25;6204703;28;20046;-69
2023/09/20 01:53:25;;;;;;;4.15;1.63;;;;;;;7.70;68.96;97365.16;6221139;28;20132;-69
2023/09/20 01:56:31;;;;;;;7.25;1.35;;;;;;;7.64;68.47;97372.38;6221618;28;20460;-68
2023/09/20 01:59:36;;;;;;;3.17;1.23;;;;;;;7.66;68.93;97385.41;6204626;28;20054;-68
2023/09/20 02:02:38;;;;;;;2.78;1.52;;;;;;;7.64;68.27;97374.13;6221572;28;20260;-69
2023/09/20 02:05:44;;;;;;;1.80;1.52;;;;;;;7.64;68.64;97382.00;6220748;28;20064;-71
2023/09/20 02:08:49;;;;;;;1.50;1.17;;;;;;;7.57;68.37;97383.19;6220465;28;20093;-69
2023/09/20 02:11:58;;;;;;;3.03;1.20;;;;;;;7.56;68.63;97384.97;6221088;28;20533;-69
2023/09/20 02:15:07;;;;;;;4.35;1.38;;;;;;;7.50;68.50;97390.50;6221077;28;20042;-71
2023/09/20 02:18:11;;;;;;;3.28;1.50;;;;;;;7.50;68.75;97400.09;6220724;28;20054;-69
2023/09/20 02:21:16;;;;;;;3.42;1.55;;;;;;;7.53;68.67;97407.81;6220748;28;20046;-69
2023/09/20 02:24:18;;;;;;;;;;;;;;;7.64;68.23;97416.91;6220846;28;20429;-68
2023/09/20 02:27:22;;;;;;;3.85;1.92;;;;;;;7.65;68.14;97425.63;6220727;28;20320;-69
2023/09/20 02:30:35;;;;;;;2.78;1.55;;;;;;;7.62;68.48;97426.59;6203777;28;20054;-69
2023/09/20 02:33:40;;;;;;;3.22;1.80;;;;;;;7.44;68.60;97401.22;6219864;28;20050;-68
2023/09/20 02:36:47;;;;;;;3.85;1.48;;;;;;;7.65;68.28;97439.56;6220684;28;20498;-69
2023/09/20 02:39:51;;;;;;;2.75;1.48;;;;;;;7.65;68.68;97447.41;6220374;28;20045;-69
2023/09/20 02:42:59;;;;;;;2.15;1.60;;;;;;;7.67;68.58;97455.19;6220874;28;20054;-69
2023/09/20 02:46:06;;;;;;;3.78;1.77;;;;;;;7.62;68.75;97450.16;6221002;28;20674;-68
2023/09/20 02:49:09;;;;;;;2.45;1.30;;;;;;;7.73;69.04;97464.53;6219742;28;20096;-70
2023/09/20 02:52:11;;;;;;;2.00;1.50;;;;;;;7.71;68.82;97456.78;6219399;28;20049;-69
2023/09/20 02:55:22;;;;;;;1.65;1.42;;;;;;;7.73;68.98;97459.31;6220466;28;20041;-69
2023/09/20 02:58:26;;;;;;;4.60;2.30;;;;;;;7.79;68.99;97469.53;6220220;28;20045;-69
2023/09/20 03:01:34;;;;;;;2.38;1.85;;;;;;;7.78;68.84;97473.06;6220094;28;20450;-69
2023/09/20 03:04:38;;;;;;;5.97;1.98;;;;;;;7.84;68.77;97478.91;6219147;28;20161;-70
2023/09/20 03:07:42;;;;;;;5.13;2.50;;;;;;;7.85;68.88;97483.22;6219534;28;20457;-69
2023/09/20 03:10:46;;;;;;;9.90;2.47;;;;;;;7.88;68.63;97484.84;6219215;28;20041;-68
2023/09/20 03:13:48;;;;;;;3.72;1.98;;;;;;;7.92;68.35;97480.31;6218983;28;20923;-68
2023/09/20 03:16:53;;;;;;;5.90;1.88;;;;;;;7.96;68.02;97487.97;6219171;28;20165;-68
2023/09/20 03:19:54;;;;;;;4.25;1.40;;;;;;;8.10;67.53;97490.84;6218240;28;20046;-68
2023/09/20 03:23:05;;;;;;;5.97;1.42;;;;;;;8.06;67.26;97489.25;6220295;28;20049;-70
2023/09/20 03:26:09;;;;;;;7.53;2.03;;;;;;;8.06;67.34;97499.72;6227758;28;20451;-69
2023/09/20 03:29:17;;;;;;;2.92;2.05;;;;;;;8.19;67.07;97489.56;6227664;28;20489;-69
2023/09/20 03:32:22;;;;;;;1.85;1.40;;;;;;;8.18;67.22;97497.47;6227125;28;20460;-68
2023/09/20 03:35:27;;;;;;;2.95;1.10;;;;;;;8.23;66.52;97500.75;6200974;28;20418;-70
2023/09/20 03:38:32;;;;;;;5.00;1.35;;;;;;;8.28;66.28;97493.53;6202912;28;20540;-68
2023/09/20 03:41:38;;;;;;;5.32;1.50;;;;;;;8.25;66.37;97485.81;6203401;28;20046;-69
2023/09/20 03:44:39;;;;;;;2.25;1.48;;;;;;;8.37;65.93;97495.72;6202777;28;20056;-69
2023/09/20 03:47:45;;;;;;;3.35;1.38;;;;;;;8.42;65.96;97500.81;6203256;28;20059;-70
2023/09/20 03:50:46;;;;;;;4.93;1.70;;;;;;;8.48;65.70;97506.59;6203352;28;20493;-70
2023/09/20 03:53:49;;;;;;;3.13;2.30;;;;;;;8.56;65.46;97503.63;6202627;28;20541;-70
2023/09/20 03:56:51;;;;;;;11.87;4.10;;;;;;;8.66;65.30;97520.66;6201443;28;20046;-70
2023/09/20 03:59:57;;;;;;;5.97;3.25;;;;;;;8.74;64.87;97518.50;6203172;28;20050;-69
2023/09/20 04:03:05;;;;;;;6.55;3.00;;;;;;;8.80;64.59;97519.13;6203406;28;20426;-69
2023/09/20 04:06:09;;;;;;;7.15;3.25;;;;;;;8.87;64.43;97524.03;6203112;28;20133;-69
2023/09/20 04:09:14;;;;;;;4.07;2.45;;;;;;;8.93;64.38;97528.97;6202787;28;20057;-70
2023/09/20 04:12:15;;;;;;;3.70;2.30;;;;;;;9.02;63.98;97537.34;6202334;28;20430;-68
2023/09/20 04:15:19;;;;;;;5.28;2.50;;;;;;;9.07;63.84;97530.94;6203001;28;20050;-68
2023/09/20 04:18:20;;;;;;;;;;;;;;;9.07;63.99;97530.94;6202819;28;20054;-69
2023/09/20 04:21:24;;;;;;;2.53;2.03;;;;;;;9.18;63.63;97543.56;6202847;28;19921;-69
2023/09/20 04:24:26;;;;;;;3.63;1.85;;;;;;;9.23;63.43;97533.69;6202593;28;20050;-69
2023/09/20 04:27:32;;;;;;;6.72;2.30;;;;;;;9.34;63.29;97547.16;6202928;28;20050;-69
2023/09/20 04:30:36;;;;;;;4.45;2.47;;;;;;;9.43;62.96;97543.22;6202475;28;20077;-69
2023/09/20 04:33:40;;;;;;;5.80;2.92;;;;;;;9.55;62.98;97557.50;6202745;28;20054;-69
2023/09/20 04:36:45;;;;;;;3.17;1.63;;;;;;;9.66;62.62;97560.44;6199115;28;20098;-69
2023/09/20 04:39:53;;;;;;;4.25;1.55;;;;;;;9.68;62.52;97555.94;6198487;28;20062;-69
2023/09/20 04:42:55;;;;;;;4.00;2.00;;;;;;;9.79;62.06;97553.63;6197063;28;20050;-69
2023/09/20 04:46:02;;;;;;;3.55;1.60;;;;;;;9.82;61.70;97550.88;6198887;28;20049;-69
2023/09/20 04:49:06;;;;;;;4.25;1.67;;;;;;;9.94;61.23;97561.69;6196613;28;20078;-71
2023/09/20 04:52:11;;;;;;;1.98;1.10;;;;;;;10.04;60.89;97562.91;6198542;28;20046;-70
2023/09/20 04:55:15;;;;;;;1.33;1.08;;;;;;;10.16;60.49;97564.88;6198745;28;20046;-70
2023/09/20 04:58:20;;;;;;;1.67;1.17;;;;;;;10.23;60.39;97562.81;6199056;28;20636;-70
2023/09/20 05:01:26;;;;;;;1.27;0.82;;;;;;;10.41;59.80;97563.63;6199793;28;20045;-70
2023/09/20 05:04:27;;;;;;;0.88;0.82;;;;;;;10.49;59.25;97571.97;6198489;28;20042;-71
2023/09/20 05:07:34;;;;;;;2.75;1.05;;;;;;;10.61;59.09;97571.31;6198242;28;20073;-70
2023/09/20 05:10:41;;;;;;;1.33;0.80;;;;;;;10.76;57.84;97570.50;6198081;28;20042;-70
2023/09/20 05:13:42;;;;;;;2.78;1.30;;;;;;;10.86;57.22;97581.34;6198401;28;20046;-68
2023/09/20 05:16:44;;;;;;;2.17;1.30;;;;;;;10.91;57.18;97578.47;6197456;28;20046;-71
2023/09/20 05:19:45;;;;;;;4.65;1.90;;;;;;;11.04;56.80;97576.00;6197674;28;20046;-69
2023/09/20 05:22:50;;;;;;;2.40;2.13;;;;;;;11.21;56.36;97579.41;6197525;28;20437;-71
2023/09/20 05:25:56;;;;;;;6.88;2.60;;;;;;;11.36;55.81;97574.22;6197463;28;20049;-71
2023/09/20 05:28:58;;;;;;;3.72;1.58;;;;;;;12.87;53.02;97584.59;6198035;28;20552;-69
2023/09/20 05:32:03;;;;;;;2.70;0.50;;;;;;;18.08;42.27;97580.97;6197949;28;20046;-68
2023/09/20 05:35:06;;;;;;;1.65;0.30;;;;;;;23.28;33.59;97595.25;6208462;28;20108;-69
2023/09/20 05:38:13;;;;;;;0.80;0.38;;;;;;;27.13;27.21;97596.66;6204815;28;20124;-69
2023/09/20 05:41:18;;;;;;;3.13;0.40;;;;;;;29.71;23.89;97616.38;6203814;28;20053;-68
2023/09/20 05:44:19;;;;;;;0.20;0.20;;;;;;;31.90;21.13;97605.41;6221229;28;20058;-70
2023/09/20 05:47:23;;;;;;;0.70;0.25;;;;;;;33.78;19.14;97610.97;6203406;28;20094;-68
2023/09/20 05:50:33;;;;;;;2.95;0.20;;;;;;;35.10;17.68;97619.06;6221537;28;20494;-68
2023/09/20 05:53:42;;;;;;;1.88;0.50;;;;;;;36.39;15.82;97615.16;6221617;28;20421;-68
2023/09/20 05:56:44;;;;;;;2.40;0.75;;;;;;;37.87;14.42;97617.41;6220965;28;20428;-67
2023/09/20 05:59:48;;;;;;;2.65;0.60;;;;;;;38.94;13.87;97617.69;6221368;28;20116;-68
2023/09/20 06:02:49;;;;;;;1.35;0.50;;;;;;;39.34;13.53;97615.50;6220878;28;20421;-67
2023/09/20 06:05:51;;;;;;;3.35;1.10;;;;;;;39.88;13.24;97626.22;6221557;28;20041;-68
2023/09/20 06:08:55;;;;;;;2.08;0.82;;;;;;;41.26;12.40;97629.97;6221238;28;20037;-68
2023/09/20 06:11:56;;;;;;;3.15;0.80;;;;;;;41.58;11.54;97619.69;6221132;28;20499;-68
2023/09/20 06:15:00;;;;;;;2.28;0.93;;;;;;;42.02;11.47;97632.81;6220524;28;20045;-68
2023/09/20 06:18:04;;;;;;;2.08;0.68;;;;;;;43.26;10.86;97635.25;6220554;28;20421;-68
2023/09/20 06:21:09;;;;;;;2.30;0.70;;;;;;;44.42;10.32;97633.28;6220563;28;20144;-68
2023/09/20 06:24:12;;;;;;;1.83;1.00;;;;;;;44.95;9.93;97630.19;6220697;28;20033;-68
2023/09/20 06:27:21;;;;;;;4.10;0.80;;;;;;;44.69;10.06;97634.53;6220808;28;20050;-68
2023/09/20 06:30:27;;;;;;;2.90;1.08;;;;;;;45.33;9.72;97632.88;6220022;28;20053;-68
2023/09/20 06:33:31;;;;;;;2.45;0.60;;;;;;;45.43;9.13;97632.66;6220511;28;20045;-68
2023/09/20 06:36:35;;;;;;;2.25;0.98;;;;;;;44.20;9.29;97624.72;6220271;28;20687;-68
2023/09/20 06:39:39;;;;;;;2.72;0.85;;;;;;;44.29;9.78;97625.69;6220380;28;20042;-68
2023/09/20 06:42:48;;;;;;;2.53;0.60;;;;;;;44.97;9.23;97629.91;6220550;28;20049;-68
2023/09/20 06:45:52;;;;;;;2.97;0.70;;;;;;;45.70;9.05;97636.63;6220249;28;20081;-68
2023/09/20 06:48:58;;;;;;;1.45;0.45;;;;;;;46.02;8.60;97610.66;6219065;28;20054;-68
2023/09/20 06:52:03;;;;;;;6.32;0.80;;;;;;;46.38;8.33;97642.44;6202354;28;20079;-68
2023/09/20 06:55:05;;;;;;;1.40;0.38;;;;;;;46.75;8.21;97644.91;6220063;28;20045;-69
2023/09/20 06:58:11;;;;;;;2.50;0.50;;;;;;;47.41;7.86;97636.81;6219216;28;20054;-69
2023/09/20 07:01:13;;;;;;;2.25;0.50;;;;;;;47.37;8.07;97640.53;6219239;28;20464;-67
2023/09/20 07:04:18;;;;;;;0.75;0.35;;;;;;;47.15;7.80;97633.88;6219549;28;20453;-68
2023/09/20 07:07:20;;;;;;;2.78;0.60;;;;;;;47.04;8.10;97642.81;6220283;28;20180;-68
2023/09/20 07:10:25;;;;;;;1.17;0.70;;;;;;;45.81;8.27;97631.69;6202338;28;20054;-69
2023/09/20 07:13:32;;;;;;;1.20;0.73;;;;;;;45.36;8.92;97632.28;6220144;28;20067;-68
2023/09/20 07:16:33;;;;;;;1.45;0.60;;;;;;;44.41;9.29;97633.59;6219322;28;20062;-67
2023/09/20 07:19:39;;;;;;;1.80;0.60;;;;;;;44.02;9.07;97632.69;6219814;28;20497;-68
2023/09/20 07:22:47;;;;;;;2.70;1.75;;;;;;;45.24;8.60;97620.81;6202711;28;20050;-68
2023/09/20 07:25:52;;;;;;;1.70;0.40;;;;;;;46.84;8.09;97635.78;6218709;28;20541;-67
2023/09/20 07:28:57;;;;;;;1.30;0.73;;;;;;;47.53;7.39;97630.59;6219548;28;20045;-67
2023/09/20 07:32:04;;;;;;;1.88;0.50;;;;;;;48.28;7.15;97633.47;6219543;28;20045;-68
2023/09/20 07:35:19;;;;;;;1.63;0.60;;;;;;;48.01;7.33;97627.00;6219001;28;20541;-68
2023/09/20 07:38:26;;;;;;;1.33;0.50;;;;;;;48.42;7.35;97638.91;6219414;28;20477;-68
2023/09/20 07:41:35;;;;;;;2.80;0.75;;;;;;;48.74;7.23;97629.22;6219303;28;20038;-68
2023/09/20 07:44:43;;;;;;;3.15;0.45;;;;;;;47.02;7.28;97623.59;6219616;28;20493;-69
2023/09/20 07:47:45;;;;;;;0.75;0.57;;;;;;;46.83;7.53;97628.56;6201700;28;20042;-68
2023/09/20 07:50:51;;;;;;;1.48;0.70;;;;;;;46.95;7.51;97620.44;6217928;28;20046;-68
2023/09/20 07:53:55;;;;;;;3.47;1.08;;;;;;;46.78;7.77;97627.56;6218621;28;20057;-68
2023/09/20 07:56:59;;;;;;;3.88;0.57;;;;;;;47.41;7.21;97616.47;6212408;28;20038;-68
2023/09/20 08:00:07;;;;;;;0.70;0.45;;;;;;;48.05;7.21;97621.59;6193069;28;20133;-68
2023/09/20 08:03:14;;;;;;;2.07;0.37;;;;;;;48.72;7.04;97618.38;6193183;28;20133;-68
2023/09/20 08:06:33;;;;;;;2.65;0.63;;;;;;;48.89;6.99;97620.31;6194859;28;20502;-68
2023/09/20 08:09:37;;;;;;;1.45;0.45;;;;;;;48.55;7.11;97622.00;6195242;28;20050;-68
2023/09/20 08:12:41;;;;;;;1.50;0.63;;;;;;;46.83;7.26;97611.84;6197644;28;20050;-68
2023/09/20 08:15:48;;;;;;;2.70;0.77;;;;;;;45.73;7.85;97596.28;6197797;28;20050;-68
2023/09/20 08:19:04;;;;;;;2.35;0.68;;;;;;;43.09;8.77;97598.84;6199331;28;20498;-68
2023/09/20 08:22:10;;;;;;;2.53;1.13;;;;;;;40.96;9.97;97592.19;6198964;28;20361;-68
2023/09/20 09:02:30;;;;;;;0.95;0.50;;;;;;;46.46;6.63;97602.72;6198407;28;20061;-67
2023/09/20 09:05:33;;;;;;;1.15;0.50;;;;;;;44.90;7.63;97591.44;6198173;28;20542;-68
2023/09/20 09:08:37;;;;;;;2.15;0.50;;;;;;;45.40;8.02;97594.38;6197992;28;20050;-68
2023/09/20 09:11:45;;;;;;;3.53;0.80;;;;;;;46.21;7.90;97602.16;6197559;28;20050;-68
2023/09/20 09:14:52;;;;;;;;;;;;;;;48.26;7.55;97613.44;6198481;28;20047;-68
2023/09/20 09:17:56;;;;;;;0.85;0.65;;;;;;;47.22;7.06;97592.44;6197600;28;19925;-68
2023/09/20 09:21:03;;;;;;;1.83;0.77;;;;;;;46.74;6.99;97592.28;6197447;28;20046;-69
2023/09/20 09:24:09;;;;;;;1.50;0.75;;;;;;;47.03;7.00;97583.47;6196751;28;20050;-68
2023/09/20 09:27:15;;;;;;;3.80;1.25;;;;;;;47.44;6.73;97597.13;6198294;28;20038;-68
2023/09/20 09:30:23;;;;;;;2.58;0.85;;;;;;;47.41;6.77;97605.31;6197849;28;20042;-68
2023/09/20 09:33:26;;;;;;;5.10;2.47;;;;;;;47.50;6.78;97597.81;6197474;28;20061;-68
2023/09/20 09:36:37;;;;;;;3.25;0.90;;;;;;;47.74;6.71;97602.16;6197539;28;20077;-68
2023/09/20 09:39:59;;;;;;;1.80;0.70;;;;;;;46.99;7.03;97605.53;6198057;28;20054;-68
2023/09/20 09:43:15;;;;;;;2.92;0.85;;;;;;;47.00;6.90;97589.69;6196762;28;20144;-69
2023/09/20 09:46:22;;;;;;;2.45;0.68;;;;;;;46.10;7.10;97596.00;6197727;28;20042;-69
2023/09/20 09:49:30;;;;;;;2.25;0.55;;;;;;;45.71;7.21;97588.22;6197418;28;20046;-68
2023/09/20 09:52:34;;;;;;;0.93;0.52;;;;;;;46.12;7.04;97587.38;6194834;28;20217;-69
2023/09/20 09:55:41;;;;;;;1.45;0.55;;;;;;;45.04;7.21;97575.63;6196886;28;20038;-69
2023/09/20 09:58:45;;;;;;;3.47;0.68;;;;;;;43.49;8.04;97574.59;6197071;28;20058;-69
2023/09/20 10:01:48;;;;;;;1.30;0.73;;;;;;;42.72;8.86;97578.13;6196487;28;20043;-69
2023/09/20 10:05:01;;;;;;;3.30;0.57;;;;;;;42.61;8.36;97582.09;6196189;28;20054;-68
2023/09/20 10:08:09;;;;;;;2.13;0.80;;;;;;;43.06;8.21;97582.81;6196749;28;20074;-68
2023/09/20 10:11:13;;;;;;;5.93;0.90;;;;;;;42.59;8.31;97568.53;6196900;28;20038;-70
2023/09/20 10:14:19;;;;;;;2.17;1.08;;;;;;;42.06;9.24;97575.81;6196239;28;20051;-69
2023/09/20 10:17:28;;;;;;;2.30;1.08;;;;;;;42.49;8.73;97570.56;6196952;28;20042;-69
2023/09/20 10:21:10;;;;;;;3.35;0.90;;;;;;;43.11;8.52;97574.44;6196250;28;20229;-68
2023/09/20 10:24:25;;;;;;;1.65;0.80;;;;;;;42.87;8.71;97568.88;6158115;28;20057;-69
2023/09/20 10:27:30;;;;;;;1.27;0.82;;;;;;;42.55;8.93;97561.09;6196079;28;20050;-69
2023/09/20 10:31:02;;;;;;;2.90;0.68;;;;;;;42.33;8.81;97559.63;6179201;28;20050;-69
2023/09/20 10:34:03;;;;;;;0.95;0.60;;;;;;;41.57;8.88;97558.09;6195098;28;20411;-68
2023/09/20 10:37:10;;;;;;;2.42;0.88;;;;;;;40.38;9.82;97562.13;6195606;28;20541;-69
2023/09/20 10:40:12;;;;;;;2.65;0.73;;;;;;;39.00;10.78;97552.50;6193628;28;20145;-68
2023/09/20 10:43:14;;;;;;;1.88;0.70;;;;;;;39.34;10.59;97554.91;6194117;28;20478;-68
2023/09/20 10:46:22;;;;;;;2.55;0.70;;;;;;;39.87;10.01;97558.44;6195576;28;20046;-68
2023/09/20 10:49:48;;;;;;;2.13;0.60;;;;;;;40.34;9.92;97562.94;6195404;28;20050;-68
2023/09/20 10:52:56;;;;;;;1.33;0.77;;;;;;;40.27;10.13;97562.41;6195358;28;20038;-70
2023/09/20 10:55:58;;;;;;;2.17;0.80;;;;;;;40.04;10.39;97564.53;6195527;28;20156;-68
2023/09/20 10:59:05;;;;;;;1.25;0.63;;;;;;;39.14;10.58;97570.19;6194980;28;20137;-69
2023/09/20 11:02:10;;;;;;;2.00;0.90;;;;;;;37.92;11.08;97562.53;6192321;28;20054;-68
2023/09/20 11:05:14;;;;;;;2.47;0.70;;;;;;;37.91;11.70;97555.38;6195249;28;20042;-70
2023/09/20 11:08:15;;;;;;;2.97;0.85;;;;;;;37.89;11.23;97554.81;6194682;28;20078;-69
2023/09/20 11:11:17;;;;;;;2.50;1.20;;;;;;;37.30;11.65;97549.16;6193059;28;20046;-69
2023/09/20 11:14:21;;;;;;;4.50;2.10;;;;;;;36.34;12.09;97550.13;6194538;28;20132;-69
2023/09/20 11:17:29;;;;;;;3.95;1.20;;;;;;;35.50;12.66;97550.72;6194951;28;20368;-70
2023/09/20 11:20:32;;;;;;;3.78;1.17;;;;;;;35.21;12.56;97549.84;6194966;28;20053;-68
2023/09/20 11:23:34;;;;;;;;;;;;;;;35.73;12.16;97554.50;6194397;28;20468;-68
2023/09/20 11:26:45;;;;;;;2.50;0.63;;;;;;;34.57;12.81;97554.38;6194488;28;19922;-69
2023/09/20 11:29:49;;;;;;;1.88;0.70;;;;;;;32.93;13.57;97541.59;6193989;28;20046;-70
2023/09/20 11:32:50;;;;;;;1.45;0.70;;;;;;;32.80;14.09;97544.47;6194184;28;20449;-70
2023/09/20 11:35:51;;;;;;;2.22;0.90;;;;;;;32.78;13.68;97546.56;6192588;28;20434;-70
2023/09/20 11:38:54;;;;;;;1.75;0.70;;;;;;;32.59;14.32;97541.09;6194261;28;20034;-70
2023/09/20 11:42:04;;;;;;;1.88;0.70;;;;;;;32.13;14.57;97542.28;6193696;28;20145;-70
2023/09/20 11:45:10;;;;;;;5.30;3.20;;;;;;;31.68;14.78;97547.78;6195438;28;20438;-69
2023/09/20 11:48:15;;;;;;;3.53;2.38;;;;;;;31.27;15.28;97546.25;6199088;28;20648;-70
2023/09/20 11:51:19;;;;;;;1.70;0.88;;;;;;;30.99;15.11;97548.41;6197456;28;20069;-70
2023/09/20 11:54:28;;;;;;;2.28;0.70;;;;;;;30.97;14.95;97547.78;6198994;28;20049;-70
2023/09/20 11:57:35;;;;;;;1.50;0.90;;;;;;;31.10;14.76;97539.63;6198292;28;20430;-69
2023/09/20 12:00:40;;;;;;;1.98;0.82;;;;;;;31.44;15.17;97535.75;6198026;28;20496;-70
2023/09/20 12:03:46;;;;;;;3.60;0.80;;;;;;;31.49;15.04;97545.97;6198898;28;20452;-69
2023/09/20 12:06:52;;;;;;;3.15;0.70;;;;;;;30.79;14.85;97545.72;6198045;28;20046;-70
2023/09/20 12:09:55;;;;;;;1.15;0.50;;;;;;;30.40;15.30;97545.56;6198557;28;20132;-69
2023/09/20 12:12:58;;;;;;;0.97;0.67;;;;;;;30.02;15.39;97541.75;6197569;28;20057;-70
2023/09/20 12:16:02;;;;;;;1.02;0.40;;;;;;;29.35;15.85;97546.94;6198978;28;20535;-70
2023/09/20 12:19:07;;;;;;;2.40;0.65;;;;;;;28.94;16.13;97544.22;6198543;28;20038;-69
2023/09/20 12:22:08;;;;;;;6.35;1.42;;;;;;;28.75;16.38;97541.19;6198266;28;20061;-69
2023/09/20 12:25:16;;;;;;;2.25;0.90;;;;;;;28.49;16.94;97539.13;6197689;28;20058;-69
2023/09/20 12:28:17;;;;;;;1.38;0.77;;;;;;;27.84;17.91;97545.59;6197839;28;20439;-69
2023/09/20 12:31:23;;;;;;;1.30;0.60;;;;;;;27.59;18.36;97551.31;6198320;28;20506;-70
2023/09/20 12:34:26;;;;;;;3.00;0.57;;;;;;;27.14;18.92;97542.44;6197772;28;20058;-69
2023/09/20 12:37:30;;;;;;;2.00;0.70;;;;;;;26.69;19.44;97552.41;6197769;28;20042;-70
2023/09/20 12:40:37;;;;;;;5.03;1.08;;;;;;;26.55;19.44;97548.69;6197967;28;20493;-70
2023/09/20 12:43:40;;;;;;;3.08;1.00;;;;;;;26.27;19.74;97551.09;6197669;28;20537;-69
2023/09/20 12:46:42;;;;;;;3.30;0.68;;;;;;;25.86;20.11;97554.13;6197896;28;20506;-69
2023/09/20 12:49:46;;;;;;;2.50;0.90;;;;;;;25.64;20.53;97549.50;6196550;28;20076;-69
2023/09/20 12:52:54;;;;;;;4.53;0.82;;;;;;;25.54;20.73;97561.38;6197479;28;20049;-70
2023/09/20 12:55:58;;;;;;;1.30;0.70;;;;;;;25.52;20.55;97552.59;6196301;28;20466;-71
2023/09/20 12:59:00;;;;;;;1.42;0.55;;;;;;;25.51;20.51;97555.50;6197121;28;20056;-69
2023/09/20 13:02:02;;;;;;;19.55;12.57;;;;;;;25.20;20.57;97552.78;6197219;28;20485;-70
2023/09/20 13:05:03;;;;;;;3.90;2.50;;;;;;;24.82;21.32;97555.25;6197361;28;20038;-69
2023/09/20 13:08:07;;;;;;;5.00;1.30;;;;;;;24.44;21.63;97557.69;6197443;28;20418;-70
2023/09/20 13:11:14;;;;;;;3.67;1.05;;;;;;;24.10;22.02;97556.00;6197586;28;20042;-69
2023/09/20 13:14:19;;;;;;;2.25;0.93;;;;;;;23.78;22.59;97550.56;6197467;28;20125;-70
2023/09/20 13:17:23;;;;;;;5.25;1.35;;;;;;;23.43;22.87;97553.34;6197086;28;20438;-69
2023/09/20 13:20:27;;;;;;;5.78;1.20;;;;;;;23.14;23.27;97559.13;6197643;28;20049;-71
2023/09/20 13:23:34;;;;;;;7.63;1.17;;;;;;;22.75;23.72;97559.56;6198241;28;20043;-70
2023/09/20 13:26:39;;;;;;;5.03;1.13;;;;;;;22.25;24.37;97552.22;6197612;28;20038;-69
2023/09/20 13:29:44;;;;;;;5.80;1.63;;;;;;;21.70;24.88;97555.06;6197489;28;20073;-69
2023/09/20 13:32:51;;;;;;;9.55;1.75;;;;;;;21.16;25.51;97556.78;6197693;28;20042;-69
2023/09/20 13:35:55;;;;;;;4.60;1.35;;;;;;;20.72;26.34;97561.91;6195822;28;20136;-68
2023/09/20 13:38:57;;;;;;;3.70;1.38;;;;;;;20.23;27.24;97553.13;6196513;28;20046;-69
2023/09/20 13:42:03;;;;;;;4.72;1.48;;;;;;;19.79;28.08;97558.09;6197376;28;20491;-70
2023/09/20 13:45:07;;;;;;;6.38;1.92;;;;;;;19.36;28.94;97557.44;6197221;28;20038;-68
2023/09/20 13:48:13;;;;;;;9.45;4.45;;;;;;;18.99;29.08;97570.53;6197117;28;20038;-70
2023/09/20 13:51:17;;;;;;;9.05;2.90;;;;;;;18.61;29.50;97564.06;6196756;28;20039;-68
2023/09/20 13:54:24;;;;;;;4.65;2.47;;;;;;;18.27;30.16;97566.09;6196986;28;20198;-69
2023/09/20 13:57:34;;;;;;;9.35;2.50;;;;;;;17.94;31.17;97563.47;6197203;28;20125;-69
2023/09/20 14:00:37;;;;;;;10.30;3.20;;;;;;;17.62;31.54;97557.31;6197500;28;20506;-69
2023/09/20 14:03:41;;;;;;;14.98;3.65;;;;;;;17.46;32.39;97574.50;6196812;28;20050;-69
2023/09/20 14:06:45;;;;;;;12.20;3.65;;;;;;;17.26;32.41;97572.63;6195834;28;20144;-69
2023/09/20 14:09:52;;;;;;;7.57;3.30;;;;;;;17.08;32.82;97579.47;6196371;28;20434;-70
2023/09/20 14:12:53;;;;;;;8.70;3.15;;;;;;;16.85;33.71;97579.47;6196109;28;20050;-69
2023/09/20 14:15:57;;;;;;;9.07;3.05;;;;;;;16.60;34.76;97576.03;6196768;28;20046;-70
2023/09/20 14:19:01;;;;;;;7.88;3.15;;;;;;;16.36;35.18;97576.16;6196515;28;20046;-70
2023/09/20 14:22:11;;;;;;;7.18;2.65;;;;;;;16.27;36.35;97591.94;6196476;28;20086;-70
2023/09/20 14:25:16;;;;;;;10.32;3.63;;;;;;;16.05;37.15;97596.22;6196422;28;20137;-71
2023/09/20 14:28:20;;;;;;;;;;;;;;;15.84;36.11;97605.78;6196707;28;20058;-70
2023/09/20 14:31:24;;;;;;;13.07;5.05;;;;;;;15.58;37.95;97608.53;6196195;28;20274;-70
2023/09/20 14:34:25;;;;;;;;;;;;;;;15.33;36.79;97606.81;6194314;28;20057;-68
2023/09/20 14:37:27;;;;;;;6.60;3.25;;;;;;;15.15;38.20;97609.00;6194378;28;20416;-69
2023/09/20 14:40:33;;;;;;;19.52;9.27;;;;;;;14.99;38.66;97616.34;6195919;28;20054;-69
2023/09/20 14:43:34;;;;;;;25.15;13.27;;;;;;;14.85;39.50;97613.81;6195725;28;20047;-69
2023/09/20 14:46:38;;;;;;;14.68;6.97;;;;;;;14.70;40.11;97611.28;6195954;28;20046;-70
2023/09/20 14:49:42;;;;;;;10.25;5.18;;;;;;;14.55;40.75;97612.34;6195910;28;20045;-70
2023/09/20 14:52:47;;;;;;;10.88;5.35;;;;;;;14.47;41.64;97620.81;6195706;28;20042;-70
2023/09/20 14:55:53;;;;;;;18.92;9.65;;;;;;;14.37;43.39;97631.16;6197054;28;20156;-70
2023/09/20 14:58:56;;;;;;;30.77;12.27;;;;;;;14.24;43.91;97635.59;6196411;28;20042;-71
2023/09/20 15:01:59;;;;;;;22.30;11.77;;;;;;;14.09;44.52;97636.63;6195658;28;20050;-70
2023/09/20 15:05:03;;;;;;;23.17;10.73;;;;;;;13.95;44.90;97645.47;6194926;28;20126;-69
2023/09/20 15:08:13;;;;;;;33.17;18.50;;;;;;;13.76;45.71;97630.00;6195563;28;20042;-71
2023/09/20 15:11:20;;;;;;;47.95;24.38;;;;;;;13.68;46.76;97642.88;6195012;28;20062;-70
2023/09/20 15:14:24;;;;;;;60.28;30.05;;;;;;;13.56;46.92;97641.00;6194237;28;20049;-70
2023/09/20 15:17:28;;;;;;;115.50;60.03;;;;;;;13.42;47.52;97641.91;6194829;28;20054;-70